• Join FlightAware (Why Join?)
  • Login
  • US Flag 
10:20AM EDT


 

Airport Tracker/Info


-or-


 

Live Flight TrackerFlight Track Log ✈ DAL268 ✈ 28-Oct-2013 ✈ KSFO - KJFK

Flight Track Log - Related Links

Times and Time Zones

All times are in EDT time to prevent confusion due to time zone crossing. See the DAL268 flight status page for this flight to view local times or setup timezone preferences in your user account.

Time Position Orientation Groundspeed Altitude Reporting Facility
EDT Latitude Longitude Course Direction KTS MPH feet Rate Location/Type
02:31PM 37.6150 -122.3810 90° East  Level FlightAware
02:35PM 37.7091 -122.0605 63° Northeast  Level FlightAware Approximate
02:36PM 37.7613 -121.9232 65° Northeast  Level FlightAware Approximate
02:45PM 37.6060 -122.3830 65° Northeast  Level FlightAware
02:46PM 37.7387 -121.9853 65° Northeast  Level FlightAware Approximate
02:50PM 37.7593 -121.9287 65° Northeast  Level FlightAware Approximate
02:50PM 37.6259 -122.3680 27° Northeast 170 196 500  Level FlightAware ADS-B
02:50PM 37.6330 -122.3630 29° Northeast 170 196 1,000 3,000 Climbing FlightAware ADS-B
02:51PM 37.6383 -122.3580 37° Northeast 173 199 1,400 2,760 Climbing FlightAware ADS-B
02:51PM 37.6413 -122.3550 38° Northeast 179 206 1,600 2,160 Climbing FlightAware ADS-B
02:51PM 37.6447 -122.3500 49° Northeast 182 209 1,800 2,280 Climbing FlightAware ADS-B
02:51PM 37.6529 -122.3370 51° Northeast 195 224 2,400 2,340 Climbing FlightAware ADS-B
02:51PM 37.6609 -122.3250 50° Northeast 204 235 2,900 2,100 Climbing FlightAware ADS-B
02:51PM 37.6704 -122.3110 49° Northeast 225 259 3,400 1,920 Climbing FlightAware ADS-B
02:52PM 37.6812 -122.2940 51° Northeast 246 283 3,900 2,160 Climbing FlightAware ADS-B
02:52PM 37.6968 -122.2710 49° Northeast 265 305 4,700 2,880 Climbing FlightAware ADS-B
02:52PM 37.7107 -122.2510 49° Northeast 268 308 5,700 3,360 Climbing FlightAware ADS-B
02:53PM 37.7233 -122.2330 48° Northeast 277 319 6,500 3,120 Climbing FlightAware ADS-B
02:53PM 37.7384 -122.2090 51° Northeast 282 325 7,500 3,600 Climbing FlightAware ADS-B
02:53PM 37.7449 -122.1940 61° Northeast 277 319 8,300 4,140 Climbing FlightAware ADS-B
02:53PM 37.7517 -122.1700 70° East 275 316 9,300 3,060 Climbing FlightAware ADS-B
02:54PM 37.7595 -122.1450 68° East 287 330 9,900 2,460 Climbing FlightAware ADS-B
02:54PM 37.7758 -122.0950 68° East 309 356 11,300 1,920 Climbing FlightAware ADS-B
02:55PM 37.7914 -122.0400 70° East 348 400 11,900 1,380 Climbing FlightAware ADS-B
02:55PM 37.8078 -121.9790 71° East 374 430 12,700 2,100 Climbing FlightAware ADS-B
02:56PM 37.8352 -121.8810 70° East 391 450 14,600 2,520 Climbing FlightAware ADS-B
02:56PM 37.8530 -121.8160 71° East 396 456 16,000 2,520 Climbing FlightAware ADS-B
02:57PM 37.8717 -121.7480 71° East 404 465 17,200 2,340 Climbing FlightAware ADS-B
02:57PM 37.8903 -121.6800 71° East 411 473 18,400 2,280 Climbing FlightAware ADS-B
02:58PM 37.9113 -121.6040 71° East 418 481 19,600 2,100 Climbing FlightAware ADS-B
02:58PM 37.9310 -121.5320 71° East 426 490 20,700 1,980 Climbing FlightAware ADS-B
02:59PM 37.9511 -121.4590 71° East 432 497 21,700 1,980 Climbing FlightAware ADS-B
03:00PM 37.9726 -121.3800 71° East 435 501 22,800 1,800 Climbing FlightAware ADS-B
03:01PM 38.0190 -121.2080 71° East 451 519 24,800 1,680 Climbing FlightAware
03:01PM 38.0420 -121.1240 71° East 454 522 25,800 1,560 Climbing FlightAware
03:02PM 38.0740 -121.0010 72° East 463 533 27,000 1,500 Climbing FlightAware
03:03PM 38.0890 -120.9250 76° East 466 536 27,800 1,800 Climbing FlightAware
03:03PM 38.1060 -120.8340 77° East 465 535 28,900 1,560 Climbing FlightAware
03:04PM 38.1310 -120.6960 77° East 470 541 30,100 1,440 Climbing FlightAware
03:05PM 38.1470 -120.6060 77° East 471 542 31,000 1,200 Climbing FlightAware
03:05PM 38.1640 -120.5100 77° East 478 550 31,500 1,020 Climbing FlightAware
03:06PM 38.1900 -120.3650 77° East 484 557 32,500 1,140 Climbing FlightAware
03:07PM 38.2050 -120.2820 77° East 487 560 33,100 1,020 Climbing FlightAware
03:07PM 38.2240 -120.1740 77° East 493 567 33,700 1,260 Climbing FlightAware
03:08PM 38.2410 -120.0760 78° East 483 556 34,700 1,200 Climbing FlightAware
03:09PM 38.2630 -119.9470 78° East 491 565 35,300 840 Climbing FlightAware
03:09PM 38.2780 -119.8610 77° East 492 566 35,800 1,020 Climbing FlightAware
03:10PM 38.2940 -119.7700 77° East 493 567 36,400 900 Climbing FlightAware
03:10PM 38.3100 -119.6750 78° East 494 568 36,800 660 Climbing FlightAware
03:11PM 38.3240 -119.5960 77° East 496 571 37,100 660 Climbing FlightAware
03:11PM 38.3470 -119.4560 78° East 498 573 37,700 720 Climbing FlightAware
03:12PM 38.3760 -119.2850 78° East 494 568 38,400 660 Climbing FlightAware
03:13PM 38.3940 -119.1800 78° East 494 568 38,800 420 Climbing FlightAware
03:14PM 38.4130 -119.0670 78° East 495 570 39,000 60 Climbing FlightAware
03:15PM 38.4430 -118.8830 78° East 496 571 39,000  Level FlightAware
03:15PM 38.4560 -118.8020 78° East 498 573 39,000  Level FlightAware
03:16PM 38.4880 -118.6090 78° East 499 574 39,000  Level FlightAware
03:17PM 38.5060 -118.4940 79° East 501 577 39,000  Level FlightAware
03:18PM 38.5230 -118.3900 78° East 503 579 39,000  Level FlightAware
03:18PM 38.5400 -118.2840 78° East 500 575 39,000  Level FlightAware
03:19PM 38.5560 -118.1810 79° East 500 575 39,000  Level FlightAware
03:19PM 38.5740 -118.0640 79° East 505 581 39,000  Level FlightAware
03:20PM 38.5890 -117.9680 79° East 509 586 39,000  Level FlightAware
03:21PM 38.6040 -117.8750 78° East 509 586 39,000  Level FlightAware
03:22PM 38.6300 -117.7220 78° East 509 586 39,000  Level FlightAware
03:22PM 38.6450 -117.6320 78° East 509 586 39,000  Level FlightAware
03:23PM 38.6600 -117.5420 78° East 509 586 39,000  Level FlightAware
03:23PM 38.6750 -117.4490 78° East 509 586 39,000  Level FlightAware
03:24PM 38.7000 -117.2960 78° East 509 586 39,000  Level FlightAware
03:25PM 38.7150 -117.2060 78° East 509 586 39,000  Level FlightAware
03:26PM 38.7300 -117.1200 77° East 509 586 39,000  Level FlightAware
03:26PM 38.7450 -117.0300 78° East 509 586 39,000  Level FlightAware
03:27PM 38.7590 -116.9400 79° East 509 586 39,000  Level FlightAware
03:27PM 38.7740 -116.8490 78° East 509 586 39,000  Level FlightAware
03:28PM 38.7850 -116.7840 78° East 509 586 39,000  Level FlightAware
03:29PM 38.8110 -116.6310 78° East 509 586 39,000  Level FlightAware
03:30PM 38.8260 -116.5400 78° East 509 586 39,000  Level FlightAware
03:30PM 38.8360 -116.4800 78° East 509 586 39,000  Level FlightAware
03:30PM 38.8586 -116.1289 78° East 529 609 39,000  Level Oakland Center
03:31PM 38.8819 -115.9603 80° East 524 603 39,000  Level Salt Lake Center
03:32PM 38.9061 -115.7789 80° East 518 596 39,000  Level Salt Lake Center
03:33PM 38.9303 -115.5969 80° East 516 594 39,000  Level Salt Lake Center
03:34PM 38.9606 -115.3772 80° East 520 598 39,000  Level Salt Lake Center
03:35PM 38.9831 -115.2117 80° East 519 597 39,000  Level Salt Lake Center
03:37PM 39.0064 -115.0272 81° East 522 601 39,000  Level Salt Lake Center
03:43PM 39.1521 -113.8466 81° East 520 598 39,000  Level FlightAware ADS-B
03:44PM 39.1752 -113.6494 81° East 519 597 39,000  Level FlightAware ADS-B
03:44PM 39.1866 -113.5505 81° East 522 601 39,000  Level FlightAware ADS-B
03:45PM 39.2084 -113.3594 82° East 527 606 39,000  Level FlightAware ADS-B
03:46PM 39.2153 -113.2991 82° East 525 604 39,000  Level FlightAware ADS-B (KBTF)
03:46PM 39.2271 -113.1942 82° East 527 606 39,000  Level FlightAware ADS-B (KBTF)
03:47PM 39.2389 -113.0892 82° East 524 603 39,000  Level FlightAware ADS-B
03:47PM 39.2411 -113.0688 82° East 522 601 39,000  Level FlightAware ADS-B (KBTF)
03:47PM 39.2458 -113.0270 82° East 521 600 39,000  Level FlightAware ADS-B
03:47PM 39.2463 -113.0222 82° East 519 597 39,000  Level FlightAware ADS-B (KBTF)
03:48PM 39.2566 -112.9290 82° East 519 597 39,000  Level FlightAware ADS-B
03:48PM 39.2575 -112.9203 82° East 518 596 39,000  Level FlightAware ADS-B (KBTF)
03:48PM 39.2686 -112.8190 82° East 521 600 39,000  Level FlightAware ADS-B
03:48PM 39.2697 -112.8088 82° East 522 601 39,000  Level FlightAware ADS-B
03:49PM 39.2791 -112.7210 82° East 530 610 39,000  Level FlightAware ADS-B
03:49PM 39.2805 -112.7089 82° East 531 611 39,000  Level FlightAware ADS-B
03:49PM 39.2899 -112.6210 82° East 533 613 39,000  Level FlightAware ADS-B
03:49PM 39.2917 -112.6035 82° East 532 612 39,000  Level FlightAware ADS-B (KBTF)
03:50PM 39.3024 -112.5170 81° East 535 616 39,000  Level FlightAware ADS-B
03:50PM 39.3030 -112.5121 80° East 534 615 39,000  Level FlightAware ADS-B
03:50PM 39.3111 -112.4613 78° East 536 617 39,000  Level FlightAware ADS-B (KBTF)
03:50PM 39.3181 -112.4210 77° East 537 618 39,000  Level FlightAware ADS-B
03:50PM 39.3196 -112.4130 76° East 536 617 39,000  Level FlightAware ADS-B (KBTF)
03:51PM 39.3357 -112.3260 77° East 542 624 39,000  Level FlightAware ADS-B
03:51PM 39.3387 -112.3094 77° East 542 624 39,000  Level FlightAware ADS-B
03:51PM 39.3549 -112.2230 76° East 543 625 39,000  Level FlightAware ADS-B
03:52PM 39.3569 -112.2130 76° East 544 626 39,000  Level FlightAware ADS-B
03:52PM 39.3726 -112.1290 76° East 543 625 39,000  Level FlightAware ADS-B
03:52PM 39.3750 -112.1160 77° East 544 626 39,000  Level FlightAware ADS-B
03:52PM 39.3902 -112.0340 76° East 544 626 39,000  Level FlightAware ADS-B
03:53PM 39.3946 -112.0098 77° East 544 626 39,000  Level FlightAware ADS-B
03:53PM 39.4082 -111.9360 77° East 545 627 39,000  Level FlightAware ADS-B
03:53PM 39.4204 -111.8694 77° East 546 628 39,000  Level FlightAware ADS-B (KBTF)
03:53PM 39.4260 -111.8390 77° East 550 633 39,000  Level FlightAware ADS-B
03:54PM 39.4356 -111.7857 77° East 551 634 39,000  Level FlightAware ADS-B (KBTF)
03:54PM 39.4499 -111.7070 77° East 554 638 39,000  Level FlightAware ADS-B
03:54PM 39.4551 -111.6789 77° East 557 641 39,000 -240 Level FlightAware ADS-B
03:55PM 39.4675 -111.6100 77° East 560 644 38,900 -240 Descending FlightAware ADS-B
03:55PM 39.4729 -111.5800 77° East 558 642 38,900 180 Level FlightAware ADS-B
03:55PM 39.4849 -111.5130 77° East 546 628 39,000 180 Climbing FlightAware ADS-B
03:55PM 39.4921 -111.4728 77° East 540 621 39,000 180 Level FlightAware ADS-B
03:56PM 39.5019 -111.4180 77° East 537 618 39,100  Climbing FlightAware ADS-B
03:56PM 39.5111 -111.3663 77° East 542 624 39,000 -240 Descending FlightAware ADS-B (KMTJ)
03:56PM 39.5197 -111.3180 77° East 544 626 39,000  Level FlightAware ADS-B
03:56PM 39.5272 -111.2756 77° East 545 627 39,000  Level FlightAware ADS-B (KMTJ)
03:57PM 39.5368 -111.2210 77° East 549 632 39,000  Level FlightAware ADS-B
03:57PM 39.5451 -111.1738 77° East 550 633 39,000  Level FlightAware ADS-B (KMTJ)
03:57PM 39.5539 -111.1240 77° East 552 635 39,000  Level FlightAware ADS-B
03:57PM 39.5634 -111.0695 77° East 554 638 39,000  Level FlightAware ADS-B (KMTJ)
03:58PM 39.5790 -110.9800 77° East 554 638 39,000  Level FlightAware ADS-B
03:58PM 39.5834 -110.9549 77° East 552 635 39,000  Level FlightAware ADS-B (KMTJ)
03:59PM 39.6035 -110.8395 77° East 551 634 39,000  Level FlightAware ADS-B (KMTJ)
03:59PM 39.6224 -110.7303 77° East 544 626 39,000  Level FlightAware ADS-B (KMTJ)
04:00PM 39.6440 -110.6038 77° East 544 626 39,000  Level FlightAware ADS-B (KMTJ)
04:00PM 39.6608 -110.5047 78° East 544 626 39,000  Level FlightAware ADS-B (KMTJ)
04:01PM 39.6767 -110.4108 78° East 529 609 39,000  Level FlightAware ADS-B (KMTJ)
04:02PM 39.6941 -110.3063 78° East 505 581 39,000  Level FlightAware ADS-B (KMTJ)
04:02PM 39.7094 -110.2152 78° East 513 590 39,000  Level FlightAware ADS-B (KMTJ)
04:03PM 39.7246 -110.1241 78° East 519 597 39,000  Level FlightAware ADS-B (KMTJ)
04:03PM 39.7401 -110.0309 78° East 526 605 39,000  Level FlightAware ADS-B (KMTJ)
04:04PM 39.7571 -109.9279 78° East 535 616 39,000  Level FlightAware ADS-B (KMTJ)
04:04PM 39.7734 -109.8284 78° East 540 621 39,000  Level FlightAware ADS-B (KMTJ)
04:05PM 39.7912 -109.7191 78° East 547 629 39,000  Level FlightAware ADS-B (KMTJ)
04:05PM 39.8068 -109.6232 78° East 549 632 39,000  Level FlightAware ADS-B (KMTJ)
04:06PM 39.8231 -109.5222 78° East 541 623 39,000  Level FlightAware ADS-B (KMTJ)
04:06PM 39.8383 -109.4271 78° East 535 616 39,000  Level FlightAware ADS-B (KMTJ)
04:07PM 39.8538 -109.3298 78° East 534 615 39,000  Level FlightAware ADS-B (KMTJ)
04:07PM 39.8690 -109.2333 78° East 535 616 39,000  Level FlightAware ADS-B (KMTJ)
04:08PM 39.8852 -109.1298 78° East 536 617 39,000  Level FlightAware ADS-B (KMTJ)
04:08PM 39.9009 -109.0289 78° East 532 612 39,000  Level FlightAware ADS-B (KMTJ)
04:09PM 39.9198 -108.9080 78° East 531 611 39,000  Level FlightAware ADS-B (KMTJ)
04:10PM 39.9372 -108.7946 79° East 529 609 39,000  Level FlightAware ADS-B (KMTJ)
04:10PM 39.9526 -108.6947 79° East 523 602 39,000  Level FlightAware ADS-B (KMTJ)
04:11PM 39.9666 -108.6027 79° East 517 595 39,000  Level FlightAware ADS-B (KMTJ)
04:11PM 39.9806 -108.5101 79° East 517 595 39,000  Level FlightAware ADS-B (KMTJ)
04:12PM 39.9956 -108.4105 79° East 522 601 39,000  Level FlightAware ADS-B (KMTJ)
04:12PM 40.0114 -108.3045 79° East 522 601 39,000  Level FlightAware ADS-B (KMTJ)
04:13PM 40.0251 -108.2124 79° East 522 601 39,000  Level FlightAware ADS-B (KMTJ)
04:13PM 40.0387 -108.1207 79° East 523 602 39,000  Level FlightAware ADS-B (KMTJ)
04:14PM 40.0527 -108.0253 79° East 524 603 39,000  Level FlightAware ADS-B (KMTJ)
04:14PM 40.0667 -107.9297 79° East 522 601 39,000  Level FlightAware ADS-B (KMTJ)
04:15PM 40.0827 -107.8297 78° East 521 600 39,000  Level FlightAware ADS-B (KMTJ)
04:15PM 40.0987 -107.7376 77° East 522 601 39,000  Level FlightAware ADS-B (KMTJ)
04:16PM 40.1163 -107.6356 77° East 522 601 39,000  Level FlightAware ADS-B (KMTJ)
04:16PM 40.1324 -107.5403 77° East 523 602 39,000  Level FlightAware ADS-B (KMTJ)
04:17PM 40.1471 -107.4521 78° East 521 600 39,000  Level FlightAware ADS-B (KMTJ)
04:17PM 40.1624 -107.3588 78° East 521 600 39,000  Level FlightAware ADS-B (KMTJ)
04:18PM 40.1795 -107.2548 78° East 522 601 39,000  Level FlightAware ADS-B (KMTJ)
04:18PM 40.1946 -107.1617 78° East 521 600 39,000  Level FlightAware ADS-B (KMTJ)
04:19PM 40.2112 -107.0589 78° East 522 601 39,000  Level FlightAware ADS-B (KANK)
04:20PM 40.2270 -106.9580 78° East 521 600 39,000  Level FlightAware
04:20PM 40.2440 -106.8530 78° East 518 596 39,000  Level FlightAware
04:21PM 40.2616 -106.7441 78° East 519 597 39,000  Level FlightAware ADS-B (KANK)
04:21PM 40.2778 -106.6416 78° East 521 600 39,000  Level FlightAware ADS-B (KANK)
04:23PM 40.3154 -106.4026 78° East 524 603 39,000  Level FlightAware ADS-B (KANK)
04:23PM 40.3374 -106.2611 78° East 522 601 39,000  Level FlightAware ADS-B (KANK)
04:24PM 40.3518 -106.1677 79° East 521 600 39,000  Level FlightAware ADS-B (KANK)
04:25PM 40.3800 -105.9810 79° East 518 596 39,000  Level FlightAware
04:26PM 40.3996 -105.8535 79° East 518 596 39,000  Level FlightAware ADS-B (KANK)
04:26PM 40.4250 -105.6820 79° East 513 590 39,000  Level FlightAware
04:27PM 40.4371 -105.6021 79° East 515 593 39,000  Level FlightAware ADS-B (KANK)
04:28PM 40.4590 -105.4510 79° East 520 598 39,000  Level FlightAware
04:28PM 40.4612 -105.4388 77° East 520 598 39,000  Level FlightAware ADS-B (KANK)
04:29PM 40.4916 -105.2307 79° East 521 600 39,000  Level FlightAware ADS-B (KANK)
04:29PM 40.5070 -105.1200 80° East 519 597 39,000  Level FlightAware
04:30PM 40.5264 -104.9887 79° East 522 601 39,000  Level FlightAware ADS-B (KANK)
04:31PM 40.5470 -104.8410 80° East 523 602 39,000  Level FlightAware
04:32PM 40.5650 -104.7170 79° East 524 603 39,000  Level FlightAware
04:33PM 40.5919 -104.5217 80° East 527 606 39,000  Level FlightAware ADS-B (KANK)
04:34PM 40.6270 -104.2690 80° East 527 606 39,000  Level FlightAware
04:35PM 40.6430 -104.1500 80° East 527 606 39,000  Level FlightAware
04:35PM 40.6550 -104.0550 81° East 527 606 39,000  Level FlightAware
04:36PM 40.6700 -103.9470 80° East 525 604 39,000  Level FlightAware
04:37PM 40.6990 -103.7270 80° East 527 606 39,000  Level FlightAware
04:38PM 40.7140 -103.6090 80° East 526 605 39,000  Level FlightAware
04:38PM 40.7260 -103.5150 80° East 526 605 39,000  Level FlightAware
04:39PM 40.7410 -103.4000 80° East 526 605 39,000  Level FlightAware
04:39PM 40.7580 -103.2670 80° East 526 605 39,000  Level FlightAware
04:40PM 40.7810 -103.0900 80° East 527 606 39,000  Level FlightAware
04:41PM 40.7910 -103.0050 81° East 525 604 39,000  Level FlightAware
04:41PM 40.8080 -102.8670 81° East 527 606 39,000  Level FlightAware
04:42PM 40.8260 -102.7230 81° East 527 606 39,000  Level FlightAware
04:43PM 40.8380 -102.6230 81° East 526 605 39,000  Level FlightAware
04:43PM 40.8560 -102.4760 81° East 524 603 39,000  Level FlightAware
04:44PM 40.8670 -102.3770 82° East 525 604 39,000  Level FlightAware
04:45PM 40.8820 -102.2560 81° East 526 605 39,000  Level FlightAware
04:45PM 40.8920 -102.1660 82° East 527 606 39,000  Level FlightAware
04:46PM 40.9070 -102.0420 81° East 528 608 39,000  Level FlightAware
04:46PM 40.9180 -101.9470 81° East 528 608 39,000  Level FlightAware
04:47PM 40.9370 -101.7780 81° East 523 602 39,000  Level FlightAware
04:48PM 40.9460 -101.6980 82° East 526 605 39,000  Level FlightAware
04:48PM 40.9580 -101.5900 82° East 526 605 39,000  Level FlightAware
04:49PM 40.9740 -101.4550 81° East 526 605 39,000  Level FlightAware
04:50PM 40.9860 -101.3540 81° East 526 605 39,000  Level FlightAware
04:50PM 40.9980 -101.2570 81° East 526 605 39,000  Level FlightAware
04:51PM 41.0050 -101.1920 82° East 526 605 39,000  Level FlightAware
04:51PM 41.0170 -101.0950 81° East 526 605 39,000  Level FlightAware
04:52PM 41.0290 -100.9940 81° East 526 605 39,000  Level FlightAware
04:52PM 41.0410 -100.8940 81° East 526 605 39,000  Level FlightAware
04:53PM 41.0530 -100.7910 81° East 526 605 39,000  Level FlightAware
04:54PM 41.0650 -100.6910 81° East 526 605 39,000  Level FlightAware
04:54PM 41.0810 -100.5610 81° East 526 605 39,000  Level FlightAware
04:55PM 41.0960 -100.4310 81° East 526 605 39,000  Level FlightAware
04:56PM 41.1080 -100.3360 80° East 526 605 39,000  Level FlightAware
04:57PM 41.1270 -100.1730 81° East 526 605 39,000  Level FlightAware
04:57PM 41.1350 -100.1080 81° East 526 605 39,000  Level FlightAware
04:58PM 41.1470 -100.0080 81° East 526 605 39,000  Level FlightAware
05:01PM 41.2792 -99.1017 79° East 535 616 39,000  Level FlightAware ADS-B
05:04PM 41.3432 -98.6097 80° East 536 617 39,000  Level FlightAware ADS-B
05:04PM 41.3570 -98.4980 81° East 534 615 39,000  Level FlightAware
05:05PM 41.3740 -98.3850 79° East 534 615 39,000  Level FlightAware
05:06PM 41.4099 -98.2480 71° East 536 617 39,000  Level FlightAware ADS-B
05:07PM 41.4937 -97.9906 66° East 536 617 39,000  Level FlightAware ADS-B
05:08PM 41.5430 -97.8390 66° East 534 615 39,000  Level FlightAware
05:09PM 41.6040 -97.6490 67° East 529 609 39,000  Level FlightAware
05:09PM 41.6330 -97.5580 67° East 530 610 39,000  Level FlightAware
05:10PM 41.6600 -97.4730 67° East 533 613 39,000  Level FlightAware
05:10PM 41.6960 -97.3610 67° East 532 612 39,000  Level FlightAware
05:11PM 41.7290 -97.2550 67° East 533 613 39,000  Level FlightAware
05:12PM 41.7746 -97.1102 67° East 532 612 39,000  Level FlightAware ADS-B
05:13PM 41.8280 -96.9390 67° East 533 613 39,000  Level FlightAware
05:14PM 41.8773 -96.7803 67° East 534 615 39,000  Level FlightAware ADS-B
05:14PM 41.9180 -96.6470 68° East 533 613 39,000  Level FlightAware
05:15PM 41.9554 -96.5267 67° East 532 612 39,000  Level FlightAware ADS-B
05:16PM 41.9910 -96.4120 67° East 530 610 39,000  Level FlightAware
05:16PM 42.0330 -96.2740 68° East 533 613 39,000  Level FlightAware
05:17PM 42.0870 -96.0930 68° East 532 612 39,000  Level FlightAware
05:18PM 42.1130 -96.0070 68° East 532 612 39,000  Level FlightAware
05:18PM 42.1420 -95.9100 68° East 531 611 39,000  Level FlightAware
05:19PM 42.1940 -95.7330 68° East 534 615 39,000  Level FlightAware
05:20PM 42.2120 -95.6360 76° East 535 616 39,000  Level FlightAware
05:20PM 42.2240 -95.5160 82° East 532 612 39,000  Level FlightAware
05:21PM 42.2320 -95.3960 85° East 533 613 39,000  Level FlightAware
05:22PM 42.2410 -95.2650 85° East 530 610 39,000  Level FlightAware
05:22PM 42.2490 -95.1440 85° East 528 608 39,000  Level FlightAware
05:23PM 42.2611 -94.9278 86° East 528 608 39,000  Level FlightAware ADS-B
05:24PM 42.2670 -94.8210 86° East 528 608 39,000  Level FlightAware
05:24PM 42.2717 -94.7356 86° East 529 609 39,000  Level FlightAware ADS-B
05:25PM 42.2774 -94.6307 86° East 531 611 39,000  Level FlightAware ADS-B
05:26PM 42.2858 -94.4728 86° East 535 616 39,000  Level FlightAware ADS-B
05:27PM 42.2970 -94.2650 86° East 532 612 39,000  Level FlightAware
05:27PM 42.3010 -94.1860 86° East 532 612 39,000  Level FlightAware
05:28PM 42.3062 -94.0933 86° East 533 613 39,000  Level FlightAware ADS-B
05:28PM 42.3140 -93.9558 86° East 533 613 39,000  Level FlightAware ADS-B
05:29PM 42.3179 -93.8843 86° East 532 612 39,000  Level FlightAware ADS-B
05:30PM 42.3290 -93.6780 86° East 530 610 39,000  Level FlightAware
05:30PM 42.3350 -93.5560 86° East 532 612 39,000  Level FlightAware
05:31PM 42.3450 -93.3610 86° East 533 613 39,000  Level FlightAware
05:32PM 42.3520 -93.2270 86° East 533 613 39,000  Level FlightAware
05:33PM 42.3570 -93.1180 86° East 534 615 39,000  Level FlightAware
05:33PM 42.3599 -93.0590 86° East 535 616 39,000  Level FlightAware ADS-B
05:34PM 42.3702 -92.8342 86° East 534 615 39,000  Level FlightAware ADS-B
05:35PM 42.3770 -92.6870 86° East 532 612 39,000  Level FlightAware
05:35PM 42.3807 -92.5953 87° East 532 612 39,000  Level FlightAware ADS-B
05:36PM 42.3868 -92.4509 87° East 532 612 39,000  Level FlightAware ADS-B
05:37PM 42.3953 -92.2451 87° East 532 612 39,000  Level FlightAware ADS-B
05:38PM 42.4010 -92.1006 87° East 532 612 39,000  Level FlightAware ADS-B
05:38PM 42.4058 -91.9742 87° East 531 611 39,000  Level FlightAware ADS-B
05:39PM 42.4112 -91.8286 87° East 528 608 39,000  Level FlightAware ADS-B
05:40PM 42.4150 -91.7120 87° East 527 606 39,000  Level FlightAware
05:40PM 42.4195 -91.5927 87° East 528 608 39,000  Level FlightAware ADS-B
05:41PM 42.4246 -91.4407 87° East 531 611 39,000  Level FlightAware ADS-B
05:42PM 42.4284 -91.3228 87° East 534 615 39,000  Level FlightAware ADS-B
05:43PM 42.4348 -91.1185 87° East 536 617 39,000  Level FlightAware ADS-B
05:43PM 42.4393 -90.9658 88° East 536 617 39,000  Level FlightAware ADS-B
05:44PM 42.4440 -90.7954 88° East 533 613 39,000  Level FlightAware ADS-B
05:45PM 42.4498 -90.5743 88° East 531 611 39,000  Level FlightAware ADS-B
05:46PM 42.4536 -90.4264 88° East 532 612 39,000  Level FlightAware ADS-B
05:47PM 42.4584 -90.2184 88° East 535 616 39,000  Level FlightAware ADS-B
05:48PM 42.4630 -89.9900 88° East 535 616 39,000  Level FlightAware
05:49PM 42.4660 -89.8730 88° East 535 616 39,000  Level FlightAware
05:50PM 42.4690 -89.6610 89° East 535 616 39,000  Level FlightAware
05:51PM 42.4730 -89.4710 88° East 533 613 39,000  Level FlightAware
05:51PM 42.4740 -89.3740 89° East 532 612 39,000  Level FlightAware
05:52PM 42.4750 -89.2870 89° East 531 611 39,000  Level FlightAware
05:52PM 42.4770 -89.1670 89° East 531 611 39,000  Level FlightAware
05:53PM 42.4790 -88.9720 89° East 525 604 39,000  Level FlightAware
05:54PM 42.4800 -88.8820 89° East 524 603 39,000  Level FlightAware
05:55PM 42.4820 -88.6990 89° East 524 603 39,000  Level FlightAware
05:55PM 42.4830 -88.6000 89° East 524 603 39,000  Level FlightAware
05:56PM 42.4840 -88.4040 90° East 522 601 39,000  Level FlightAware
05:57PM 42.4850 -88.2850 89° East 522 601 39,000  Level FlightAware
05:58PM 42.4860 -88.0690 90° East 522 601 39,000  Level FlightAware
05:59PM 42.4860 -87.9700 90° East 522 601 39,000  Level FlightAware
05:59PM 42.4870 -87.8750 89° East 525 604 39,000  Level FlightAware
06:00PM 42.4870 -87.6380 90° East 525 604 39,000  Level FlightAware
06:01PM 42.4870 -87.4680 90° East 523 602 39,000  Level FlightAware
06:01PM 42.4860 -87.3890 91° East 522 601 39,000  Level FlightAware
06:02PM 42.4860 -87.2980 90° East 521 600 39,000  Level FlightAware
06:03PM 42.4850 -87.1120 90° East 523 602 39,000  Level FlightAware
06:04PM 42.4840 -86.9400 90° East 524 603 39,000  Level FlightAware
06:04PM 42.4840 -86.8450 90° East 521 600 39,000  Level FlightAware
06:05PM 42.4820 -86.6740 91° East 517 595 39,000  Level FlightAware
06:06PM 42.4810 -86.4960 90° East 515 593 39,000  Level FlightAware
06:07PM 42.4800 -86.4030 91° East 516 594 39,000  Level FlightAware
06:07PM 42.4780 -86.2930 91° East 517 595 39,000  Level FlightAware
06:08PM 42.4770 -86.2080 91° East 518 596 39,000  Level FlightAware
06:08PM 42.4750 -86.0270 91° East 519 597 39,000  Level FlightAware
06:09PM 42.4720 -85.8560 91° East 521 600 39,000  Level FlightAware
06:10PM 42.4700 -85.7110 91° East 519 597 39,000  Level FlightAware
06:11PM 42.4660 -85.5140 92° East 517 595 39,000  Level FlightAware
06:12PM 42.4650 -85.4160 91° East 518 596 39,000  Level FlightAware
06:13PM 42.4610 -85.2420 92° East 519 597 39,000  Level FlightAware
06:13PM 42.4590 -85.1640 92° East 518 596 39,000  Level FlightAware
06:14PM 42.4560 -85.0290 92° East 517 595 39,000  Level FlightAware
06:14PM 42.4520 -84.8660 92° East 517 595 39,000  Level FlightAware
06:15PM 42.4420 -84.6940 94° East 515 593 39,000  Level FlightAware
06:16PM 42.4320 -84.5180 94° East 516 594 39,000  Level FlightAware
06:17PM 42.4210 -84.3230 94° East 519 597 39,000  Level FlightAware
06:18PM 42.4120 -84.1680 94° East 518 596 39,000  Level FlightAware
06:19PM 42.4060 -84.0670 95° East 518 596 39,000  Level FlightAware
06:19PM 42.3990 -83.9590 95° East 517 595 39,000  Level FlightAware
06:20PM 42.3870 -83.7620 95° East 518 596 39,000  Level FlightAware
06:21PM 42.3780 -83.6030 94° East 519 597 39,000  Level FlightAware
06:22PM 42.3670 -83.4340 95° East 515 593 39,000  Level FlightAware
06:23PM 42.3580 -83.2990 95° East 507 583 39,000  Level FlightAware
06:23PM 42.3470 -83.1310 95° East 501 577 39,000  Level FlightAware
06:24PM 42.3400 -83.0360 96° East 500 575 39,000  Level FlightAware
06:25PM 42.3280 -82.8610 95° East 499 574 39,000  Level FlightAware
06:26PM 42.3140 -82.6670 96° East 503 579 39,000  Level FlightAware
06:26PM 42.3080 -82.5780 95° East 502 578 39,000  Level FlightAware
06:27PM 42.2960 -82.4170 96° East 500 575 39,000  Level FlightAware
06:28PM 42.2840 -82.2640 96° East 497 572 39,000  Level FlightAware
06:29PM 42.2720 -82.0960 95° East 496 571 39,000  Level FlightAware
06:30PM 42.2640 -81.9960 96° East 496 571 39,000  Level FlightAware
06:31PM 42.2500 -81.8120 96° East 491 565 39,000  Level FlightAware
06:31PM 42.2420 -81.7170 96° East 489 563 39,000  Level FlightAware
06:32PM 42.2290 -81.5620 96° East 486 559 39,000  Level FlightAware
06:33PM 42.2140 -81.3780 96° East 498 573 39,000  Level FlightAware
06:34PM 42.2050 -81.2660 96° East 501 577 39,000  Level FlightAware
06:35PM 42.1890 -81.0820 97° East 505 581 39,000  Level FlightAware
06:35PM 42.1750 -80.9180 97° East 509 586 39,000  Level FlightAware
06:36PM 42.1630 -80.7840 97° East 507 583 39,000  Level FlightAware
06:37PM 42.1540 -80.6840 97° East 507 583 39,000  Level FlightAware
06:37PM 42.1480 -80.6170 97° East 507 583 39,000  Level FlightAware
06:38PM 42.1300 -80.4180 97° East 507 583 39,000  Level FlightAware
06:39PM 42.1150 -80.2580 97° East 507 583 39,000  Level FlightAware
06:40PM 42.1060 -80.1550 97° East 509 586 39,000  Level FlightAware
06:40PM 42.0930 -80.0150 97° East 509 586 39,000  Level FlightAware
06:41PM 42.0830 -79.9150 98° East 509 586 39,000  Level FlightAware
06:41PM 42.0730 -79.8110 97° East 505 581 39,000  Level FlightAware
06:42PM 42.0530 -79.6260 98° East 502 578 39,000  Level FlightAware
06:43PM 42.0290 -79.4610 101° East 500 575 39,000  Level FlightAware
06:44PM 42.0020 -79.2760 101° East 504 580 39,000  Level FlightAware
06:45PM 41.9810 -79.1310 101° East 502 578 39,000  Level FlightAware
06:46PM 41.9560 -78.9550 101° East 503 579 39,000  Level FlightAware
06:47PM 41.9310 -78.7820 101° East 503 579 39,000  Level FlightAware
06:47PM 41.9170 -78.6900 102° East 503 579 39,000  Level FlightAware
06:48PM 41.9040 -78.5980 101° East 502 578 39,000  Level FlightAware
06:48PM 41.8900 -78.5050 101° East 501 577 39,000  Level FlightAware
06:49PM 41.8650 -78.3420 102° East 503 579 39,000  Level FlightAware
06:50PM 41.8510 -78.2440 101° East 505 581 39,000  Level FlightAware
06:51PM 41.8260 -78.0810 102° East 507 583 39,000  Level FlightAware
06:52PM 41.8020 -77.9300 102° East 506 582 39,000  Level FlightAware
06:52PM 41.7900 -77.8480 101° East 507 583 39,000  Level FlightAware
06:52PM 41.7770 -77.7700 103° East 508 585 39,000  Level FlightAware
06:53PM 41.7470 -77.5760 102° East 506 582 39,000  Level FlightAware
06:54PM 41.7230 -77.4280 102° East 506 582 39,000  Level FlightAware
06:55PM 41.6990 -77.2760 102° East 508 585 39,000  Level FlightAware
06:56PM 41.6650 -77.1010 105° East 504 580 39,000  Level FlightAware
06:57PM 41.6240 -76.9490 110° East 505 581 39,000  Level FlightAware
06:57PM 41.6020 -76.8660 109° East 505 581 39,000  Level FlightAware
06:58PM 41.5720 -76.7590 111° Southeast 505 581 39,000 -300 Level FlightAware
06:59PM 41.5300 -76.6070 110° East 499 574 38,600 -720 Descending FlightAware
07:00PM 41.4870 -76.4510 110° East 498 573 37,700 -1,080 Descending FlightAware
07:00PM 41.4570 -76.3430 110° East 498 573 37,000 -1,140 Descending FlightAware
07:01PM 41.4160 -76.1960 110° East 496 571 36,100 -1,080 Descending FlightAware
07:02PM 41.3740 -76.0470 111° Southeast 496 571 35,200 -1,200 Descending FlightAware
07:03PM 41.3290 -75.8860 110° East 500 575 34,000 -1,920 Descending FlightAware
07:04PM 41.2860 -75.7350 111° Southeast 505 581 31,800 -3,240 Descending FlightAware
07:05PM 41.2400 -75.5910 113° Southeast 511 588 28,600 -4,020 Descending FlightAware
07:05PM 41.2140 -75.5120 114° Southeast 514 592 26,700 -3,840 Descending FlightAware
07:06PM 41.1720 -75.3890 114° Southeast 511 588 24,100 -2,820 Descending FlightAware
07:07PM 41.1410 -75.2960 114° Southeast 505 581 23,200 -780 Descending FlightAware
07:07PM 41.0900 -75.1450 114° Southeast 504 580 23,000 -120 Descending FlightAware
07:08PM 41.0400 -74.9970 114° Southeast 512 589 23,000  Level FlightAware
07:09PM 40.9980 -74.8560 111° Southeast 513 590 23,000 -120 Level FlightAware
07:10PM 40.9760 -74.6960 100° East 514 592 22,800 -360 Descending FlightAware
07:10PM 40.9690 -74.6220 97° East 503 579 22,600 -840 Descending FlightAware
07:11PM 40.9600 -74.5430 99° East 487 560 22,100 -1,320 Descending FlightAware
07:12PM 40.9470 -74.4170 98° East 471 542 21,100 -1,560 Descending FlightAware
07:12PM 40.9300 -74.2780 99° East 441 507 19,700 -1,440 Descending FlightAware
07:13PM 40.8950 -74.1870 117° Southeast 405 466 19,000 -840 Descending FlightAware
07:13PM 40.8690 -74.1550 137° Southeast 377 434 18,900 -720 Descending FlightAware
07:14PM 40.8330 -74.1181 142° Southeast 363 418 18,500 -1,260 Descending FlightAware ADS-B
07:14PM 40.7907 -74.0746 142° Southeast 345 397 17,700 -1,980 Descending FlightAware ADS-B
07:15PM 40.7526 -74.0359 142° Southeast 343 395 16,400 -1,440 Descending FlightAware ADS-B
07:16PM 40.6860 -73.9700 143° Southeast 343 395 15,700 -1,020 Descending FlightAware
07:17PM 40.6060 -73.9070 149° Southeast 327 376 14,600 -1,800 Descending FlightAware
07:18PM 40.5310 -73.8640 156° South 324 373 12,300 -2,400 Descending FlightAware
07:18PM 40.5080 -73.8220 126° Southeast 320 368 11,300 -2,400 Descending FlightAware
07:19PM 40.4680 -73.7460 125° Southeast 311 358 9,400 -2,400 Descending FlightAware
07:19PM 40.4540 -73.7180 123° Southeast 308 354 8,700 -2,160 Descending FlightAware
07:20PM 40.4430 -73.6770 109° East 299 344 7,900 -1,920 Descending FlightAware
07:20PM 40.4490 -73.6160 83° East 296 341 6,800 -1,020 Descending FlightAware
07:21PM 40.4620 -73.5590 73° East 287 330 6,700 -180 Descending FlightAware
07:21PM 40.4740 -73.5450 42° Northeast 282 325 6,700  Level FlightAware
07:21PM 40.5050 -73.5200 32° Northeast 278 320 6,700 -1,020 Level FlightAware
07:22PM 40.5440 -73.4950 26° Northeast 262 302 5,700 -1,800 Descending FlightAware
07:23PM 40.5800 -73.4950 360° North 247 284 4,800 -1,860 Descending FlightAware
07:23PM 40.6070 -73.4970 357° North 246 283 4,000 -2,040 Descending FlightAware
07:23PM 40.6370 -73.5000 356° North 245 282 3,100 -1,800 Descending FlightAware
07:24PM 40.6520 -73.5080 338° Northwest 238 274 2,800 -900 Descending FlightAware
07:24PM 40.6730 -73.5260 327° Northwest 220 253 2,500 -720 Descending FlightAware
07:24PM 40.6910 -73.5420 326° Northwest 212 244 2,200 -960 Descending FlightAware
07:25PM 40.7170 -73.5630 329° Northwest 204 235 1,700 -720 Descending FlightAware
07:25PM 40.7290 -73.5740 325° Northwest 189 217 1,700  Level FlightAware
07:26PM 40.7440 -73.5970 311° West 177 204 1,700  Level FlightAware
07:26PM 40.7540 -73.6180 302° West 177 204 1,700  Level FlightAware
07:26PM 40.7500 -73.6490 260° West 186 214 1,700  Level FlightAware
07:27PM 40.7380 -73.6770 241° Southwest 184 212 1,700 -300 Level FlightAware
07:27PM 40.7260 -73.6910 221° Southwest 179 206 1,500 -780 Descending FlightAware
07:28PM 40.7070 -73.7070 213° Southwest 164 189 1,100 -900 Descending FlightAware
07:28PM 40.6850 -73.7230 209° Southwest 135 155 600 -780 Descending FlightAware
07:29PM 40.6710 -73.7340 211° Southwest 124 143 300 -660 Descending FlightAware
07:29PM 40.6570 -73.7450 211° Southwest 128 147 -660 Descending FlightAware
07:30PM 40.6410 -73.7580 212° Southwest 127 146  Level FlightAware